Time;durP1;ratioP1;P1;durP2;ratioP2;P2;SDS_P1;SDS_P2;PMS_P1;PMS_P2;Temp;Humidity;BMP_temperature;BMP_pressure;BME280_temperature;BME280_humidity;BME280_pressure;Samples;Min_cycle;Max_cycle;Signal;HPM_P1;HPM_P2
2023/01/31 02:03:12;;;;;;;75.70;36.50;;;;;;;2.92;100.00;98882.82;105697;1283;613405;-65
2023/01/31 02:05:49;;;;;;;80.20;33.90;;;;;;;4.57;100.00;98884.92;107211;1264;126427;-64
2023/01/31 02:08:19;;;;;;;73.10;33.50;;;;;;;4.68;100.00;98885.60;107348;1263;61083;-65
2023/01/31 02:10:58;;;;;;;75.20;35.00;;;;;;;4.83;100.00;98884.05;107388;1263;71450;-65
2023/01/31 02:13:26;;;;;;;74.80;33.10;;;;;;;4.80;100.00;98883.98;107332;1263;71251;-66
2023/01/31 02:15:54;;;;;;;72.50;31.90;;;;;;;4.73;100.00;98880.20;107282;1263;73840;-65
2023/01/31 02:18:23;;;;;;;71.60;30.60;;;;;;;4.90;100.00;98883.80;107295;1264;62409;-64
2023/01/31 02:21:16;;;;;;;71.00;32.00;;;;;;;4.59;100.00;98883.42;107333;1264;59586;-64
2023/01/31 02:24:06;;;;;;;67.80;30.30;;;;;;;4.37;100.00;98879.11;107342;1264;73134;-65
2023/01/31 02:27:07;;;;;;;70.20;32.60;;;;;;;4.63;100.00;98881.73;107360;1264;71659;-65
2023/01/31 02:29:51;;;;;;;65.30;29.30;;;;;;;4.85;100.00;98878.75;108119;1254;73914;-65
2023/01/31 02:32:47;;;;;;;68.80;30.60;;;;;;;5.03;100.00;98881.64;108141;1254;60986;-65
2023/01/31 02:35:28;;;;;;;63.60;27.50;;;;;;;5.19;100.00;98886.29;108224;1253;59704;-64
2023/01/31 02:38:13;;;;;;;70.10;31.30;;;;;;;5.24;100.00;98884.38;108069;1252;73019;-64
2023/01/31 02:41:05;;;;;;;58.90;27.40;;;;;;;5.06;100.00;98888.85;108184;1255;71616;-65
2023/01/31 02:47:08;;;;;;;65.10;29.50;;;;;;;5.31;100.00;98892.84;108150;1257;61896;-65
2023/01/31 02:49:45;;;;;;;61.50;28.90;;;;;;;5.34;100.00;98891.70;107580;1261;60240;-65
2023/01/31 02:52:24;;;;;;;68.70;31.50;;;;;;;5.32;100.00;98892.46;108071;1254;72329;-65
2023/01/31 02:57:51;;;;;;;63.70;29.20;;;;;;;5.28;100.00;98888.77;108018;1259;71418;-66
2023/01/31 03:00:19;;;;;;;67.30;30.10;;;;;;;5.44;100.00;98887.14;108083;1254;62103;-64
2023/01/31 03:02:48;;;;;;;64.70;28.80;;;;;;;5.71;100.00;98892.79;107919;1257;59933;-64
2023/01/31 03:05:16;;;;;;;69.50;31.00;;;;;;;5.55;100.00;98894.42;108033;1255;73050;-65
2023/01/31 03:07:53;;;;;;;69.10;32.40;;;;;;;5.58;100.00;98895.70;107973;1257;70385;-66
2023/01/31 03:10:33;;;;;;;66.30;30.80;;;;;;;5.60;100.00;98893.70;107957;1257;73558;-65
2023/01/31 03:13:14;;;;;;;65.40;30.10;;;;;;;5.77;100.00;98898.16;107977;1259;62269;-65
2023/01/31 03:19:12;;;;;;;66.00;30.10;;;;;;;6.09;100.00;98888.08;107929;1260;74154;-65
2023/01/31 03:22:00;;;;;;;64.70;27.90;;;;;;;6.13;100.00;98891.58;107840;1257;70046;-64
2023/01/31 03:24:29;;;;;;;68.40;30.30;;;;;;;6.56;99.78;98895.48;107930;1257;73701;-65
2023/01/31 03:26:57;;;;;;;71.50;31.50;;;;;;;5.96;100.00;98895.71;107852;1257;61944;-65
2023/01/31 03:29:27;;;;;;;71.60;31.30;;;;;;;5.98;100.00;98898.77;108003;1254;59949;-66
2023/01/31 03:31:59;;;;;;;72.50;33.80;;;;;;;6.12;95.76;98896.34;107968;1259;72560;-66
2023/01/31 03:34:28;;;;;;;75.30;33.20;;;;;;;6.12;88.64;98891.27;108021;1259;70965;-65
2023/01/31 03:37:01;;;;;;;64.50;29.90;;;;;;;6.03;88.39;98892.83;107974;1254;72880;-65
2023/01/31 03:40:06;;;;;;;69.30;31.50;;;;;;;5.89;88.89;98893.70;108036;1254;62204;-65
2023/01/31 03:42:46;;;;;;;69.00;29.90;;;;;;;5.82;88.86;98895.17;108037;1254;60776;-65
2023/01/31 03:45:22;;;;;;;67.00;31.50;;;;;;;5.48;90.15;98899.02;108028;1254;72290;-65
2023/01/31 03:47:54;;;;;;;69.00;32.20;;;;;;;5.66;89.03;98902.54;108064;1254;71652;-65
2023/01/31 03:50:28;;;;;;;65.00;29.20;;;;;;;5.85;87.59;98899.42;107790;1254;72870;-64
2023/01/31 03:53:13;;;;;;;66.20;30.00;;;;;;;5.94;87.58;98902.02;108136;1254;61161;-66
2023/01/31 03:55:44;;;;;;;70.70;33.90;;;;;;;5.81;88.03;98901.98;108106;1254;60324;-65
2023/01/31 03:58:12;;;;;;;62.30;28.90;;;;;;;6.14;86.62;98900.59;107973;1255;71225;-65
2023/01/31 04:00:41;;;;;;;69.60;34.30;;;;;;;6.17;86.39;98907.27;108086;1254;70404;-66
2023/01/31 04:03:19;;;;;;;70.60;32.90;;;;;;;6.15;86.60;98909.83;107919;1256;72339;-65
2023/01/31 04:05:48;;;;;;;63.20;30.90;;;;;;;6.12;86.50;98910.82;108057;1259;59790;-66
2023/01/31 04:08:16;;;;;;;69.70;31.50;;;;;;;6.21;86.56;98912.23;108079;1254;61071;-65
2023/01/31 04:10:48;;;;;;;65.40;30.90;;;;;;;6.22;85.95;98919.10;107967;1255;73160;-66
2023/01/31 04:13:16;;;;;;;56.60;25.10;;;;;;;6.34;85.22;98918.49;108070;1254;69515;-66
2023/01/31 04:15:44;;;;;;;63.30;30.30;;;;;;;6.14;86.51;98920.48;108019;1254;73347;-65
2023/01/31 04:18:13;;;;;;;69.30;31.10;;;;;;;6.10;86.64;98923.94;108083;1254;61089;-66
2023/01/31 04:20:41;;;;;;;64.50;30.20;;;;;;;6.31;86.02;98923.65;108151;1254;60935;-65
2023/01/31 04:23:11;;;;;;;67.30;32.60;;;;;;;6.18;86.23;98928.55;108119;1254;74309;-66
2023/01/31 04:25:42;;;;;;;62.50;30.40;;;;;;;6.08;86.62;98926.64;108016;1254;70172;-66
2023/01/31 04:28:11;;;;;;;54.40;27.40;;;;;;;6.11;86.73;98929.98;107985;1258;73459;-66
2023/01/31 04:30:39;;;;;;;63.20;31.30;;;;;;;6.10;86.65;98930.02;107995;1258;61158;-66
2023/01/31 04:33:07;;;;;;;70.10;32.80;;;;;;;5.91;87.57;98935.23;107980;1254;60074;-65
2023/01/31 04:35:38;;;;;;;70.50;33.00;;;;;;;6.11;86.94;98931.93;108074;1254;72223;-66
2023/01/31 04:38:06;;;;;;;66.50;29.80;;;;;;;6.21;86.23;98934.33;108012;1259;70064;-65
2023/01/31 04:40:36;;;;;;;78.30;32.70;;;;;;;6.28;85.95;98933.52;108039;1254;72082;-65
2023/01/31 04:43:04;;;;;;;78.50;34.70;;;;;;;6.33;85.68;98935.08;108041;1255;61722;-65
2023/01/31 04:45:33;;;;;;;66.20;29.20;;;;;;;6.37;85.04;98936.31;108029;1254;61240;-67
2023/01/31 04:48:03;;;;;;;68.10;32.30;;;;;;;6.42;85.14;98935.77;108014;1255;73832;-64
2023/01/31 04:50:32;;;;;;;68.20;29.50;;;;;;;6.48;84.65;98934.51;108086;1254;71643;-65
2023/01/31 04:53:00;;;;;;;65.20;31.60;;;;;;;6.46;84.77;98933.36;108005;1260;71438;-66
2023/01/31 04:55:29;;;;;;;68.10;32.20;;;;;;;6.50;83.64;98940.34;107997;1254;61576;-66
2023/01/31 04:57:57;;;;;;;67.60;30.40;;;;;;;6.58;83.23;98944.91;108012;1259;61302;-66
2023/01/31 05:00:25;;;;;;;66.70;31.50;;;;;;;6.60;82.95;98950.43;108008;1254;74235;-65
2023/01/31 05:02:53;;;;;;;70.90;32.90;;;;;;;7.02;81.00;98954.67;107997;1254;71635;-66
2023/01/31 05:05:21;;;;;;;61.70;28.60;;;;;;;6.75;81.63;98962.20;108095;1258;73835;-66
2023/01/31 05:07:50;;;;;;;73.70;34.90;;;;;;;6.67;82.28;98959.76;108094;1254;60373;-65
2023/01/31 05:10:18;;;;;;;66.30;32.30;;;;;;;6.31;83.32;98957.65;108109;1254;61222;-66
2023/01/31 05:12:46;;;;;;;67.40;30.30;;;;;;;6.20;84.02;98958.60;108097;1258;71876;-65
2023/01/31 05:15:14;;;;;;;78.10;36.00;;;;;;;6.14;84.24;98960.39;108146;1254;71507;-66
2023/01/31 05:17:42;;;;;;;67.10;32.10;;;;;;;6.32;83.24;98962.67;108073;1254;72719;-67
2023/01/31 05:20:11;;;;;;;76.90;35.40;;;;;;;6.53;83.13;98965.02;108125;1254;62224;-66
2023/01/31 05:22:40;;;;;;;78.80;36.30;;;;;;;6.49;82.80;98965.65;108184;1254;61615;-66
2023/01/31 05:25:08;;;;;;;78.40;35.70;;;;;;;6.51;82.80;98964.56;108146;1254;72058;-67
2023/01/31 05:27:37;;;;;;;88.20;38.80;;;;;;;6.44;83.24;98962.20;108069;1254;71229;-66
2023/01/31 05:30:06;;;;;;;77.60;34.60;;;;;;;6.42;83.08;98968.55;108003;1254;72769;-66
2023/01/31 05:32:35;;;;;;;73.40;34.20;;;;;;;6.38;83.49;98973.40;108023;1254;61169;-66
2023/01/31 05:35:04;;;;;;;78.60;35.50;;;;;;;6.40;83.04;98968.64;108067;1254;60296;-66
2023/01/31 05:37:33;;;;;;;67.90;32.90;;;;;;;6.48;82.83;98968.02;108086;1254;73465;-66
2023/01/31 05:40:01;;;;;;;80.10;35.90;;;;;;;6.65;82.63;98970.77;108028;1254;71264;-66
2023/01/31 05:42:29;;;;;;;70.50;33.10;;;;;;;7.04;81.25;98972.55;108045;1254;73923;-66
2023/01/31 05:44:59;;;;;;;77.30;35.20;;;;;;;7.33;80.01;98973.61;108081;1254;62591;-66
2023/01/31 05:47:28;;;;;;;84.00;40.70;;;;;;;7.78;74.24;98972.52;108114;1254;59839;-66
2023/01/31 05:49:56;;;;;;;89.60;42.70;;;;;;;7.88;67.35;98978.23;108034;1254;74088;-66
2023/01/31 05:52:25;;;;;;;90.70;42.70;;;;;;;7.82;67.19;98980.61;108001;1254;70408;-66
2023/01/31 05:54:52;;;;;;;98.20;45.60;;;;;;;7.95;66.74;98983.33;108011;1254;72291;-66
2023/01/31 05:57:23;;;;;;;82.20;39.60;;;;;;;7.71;67.25;98988.23;107892;1254;61427;-67
2023/01/31 05:59:51;;;;;;;93.90;41.30;;;;;;;7.76;67.38;98993.95;108037;1254;59955;-66
2023/01/31 06:02:19;;;;;;;95.70;43.00;;;;;;;7.95;66.79;98995.91;108104;1254;73919;-66
2023/01/31 06:04:48;;;;;;;88.50;41.00;;;;;;;8.20;66.30;98999.33;108166;1254;71270;-66
2023/01/31 06:07:19;;;;;;;98.10;43.10;;;;;;;7.98;66.65;99006.59;108114;1254;71775;-64
2023/01/31 06:09:47;;;;;;;87.40;40.70;;;;;;;7.29;68.84;99010.95;108052;1259;62109;-67
2023/01/31 06:12:15;;;;;;;83.60;38.90;;;;;;;7.31;69.25;99012.46;107979;1254;59505;-67
2023/01/31 06:14:45;;;;;;;79.70;36.50;;;;;;;7.41;69.04;99010.30;108019;1254;74044;-66
2023/01/31 06:17:13;;;;;;;83.40;36.70;;;;;;;7.51;68.44;99009.34;108041;1254;70652;-65
2023/01/31 06:19:41;;;;;;;87.80;40.60;;;;;;;7.49;68.50;99011.70;108044;1254;72874;-67
2023/01/31 06:22:10;;;;;;;75.10;35.40;;;;;;;7.73;67.80;99009.64;108002;1254;60584;-66
2023/01/31 06:24:38;;;;;;;84.00;36.80;;;;;;;7.82;67.45;99007.87;108069;1254;60277;-67
2023/01/31 06:27:05;;;;;;;118.60;48.10;;;;;;;7.56;68.06;99009.14;108083;1254;73632;-66
2023/01/31 06:29:35;;;;;;;111.40;48.30;;;;;;;7.79;67.30;99007.98;108055;1259;71318;-66
2023/01/31 06:32:03;;;;;;;109.30;46.10;;;;;;;7.76;66.95;99008.13;108032;1254;73719;-65
2023/01/31 06:34:31;;;;;;;92.70;40.30;;;;;;;7.80;66.78;99007.95;108102;1254;62180;-65
2023/01/31 06:36:59;;;;;;;83.20;38.80;;;;;;;7.64;67.20;99010.35;108051;1254;61275;-66
2023/01/31 06:39:28;;;;;;;86.20;40.40;;;;;;;7.45;67.81;99010.50;108123;1254;73058;-66
2023/01/31 06:41:56;;;;;;;86.20;36.40;;;;;;;7.62;67.49;99013.60;108055;1254;71551;-66
2023/01/31 06:44:24;;;;;;;81.30;36.60;;;;;;;7.87;66.70;99020.02;108099;1254;73634;-66
2023/01/31 06:46:54;;;;;;;86.70;39.90;;;;;;;7.65;67.61;99019.41;108028;1254;60309;-66
2023/01/31 06:49:22;;;;;;;82.50;39.10;;;;;;;7.83;67.45;99022.48;108061;1254;60270;-67
2023/01/31 06:51:51;;;;;;;86.40;40.10;;;;;;;7.92;67.22;99023.30;108105;1254;74911;-64
2023/01/31 06:54:19;;;;;;;88.40;38.60;;;;;;;7.84;67.54;99027.36;108128;1254;70083;-66
2023/01/31 06:56:47;;;;;;;70.80;35.20;;;;;;;7.59;68.89;99025.23;108096;1254;72644;-65
2023/01/31 06:59:16;;;;;;;76.30;37.00;;;;;;;8.22;67.32;99029.14;108038;1254;62388;-66
2023/01/31 07:01:44;;;;;;;68.50;31.80;;;;;;;8.05;67.48;99032.18;108107;1254;60527;-67
2023/01/31 07:04:12;;;;;;;75.80;37.50;;;;;;;7.95;68.01;99032.43;108102;1254;75018;-64
2023/01/31 07:06:40;;;;;;;78.20;37.50;;;;;;;8.11;67.02;99039.08;108055;1254;70837;-66
2023/01/31 07:09:09;;;;;;;76.40;36.90;;;;;;;8.04;66.74;99040.11;108002;1254;73669;-65
2023/01/31 07:11:41;;;;;;;72.90;34.80;;;;;;;8.41;65.74;99036.36;108064;1254;60102;-66
2023/01/31 07:14:13;;;;;;;75.40;35.10;;;;;;;8.28;65.95;99037.81;108079;1254;60421;-66
2023/01/31 07:16:41;;;;;;;70.20;35.80;;;;;;;8.36;65.80;99041.14;108101;1254;72608;-66
2023/01/31 07:19:09;;;;;;;62.20;32.40;;;;;;;8.20;66.58;99039.90;108065;1254;69940;-65
2023/01/31 07:21:37;;;;;;;62.50;30.70;;;;;;;8.41;66.32;99045.30;108029;1254;73648;-63
2023/01/31 07:24:06;;;;;;;73.00;34.70;;;;;;;8.56;65.73;99046.86;108030;1259;62125;-66
2023/01/31 07:26:37;;;;;;;72.30;32.70;;;;;;;8.45;65.77;99050.52;108092;1254;60982;-66
2023/01/31 07:29:05;;;;;;;69.00;33.80;;;;;;;8.39;65.83;99054.46;108040;1254;74810;-66
2023/01/31 07:31:33;;;;;;;81.30;39.90;;;;;;;8.30;66.11;99053.79;108082;1259;71421;-67
2023/01/31 07:34:01;;;;;;;70.70;35.80;;;;;;;8.31;66.08;99053.41;108062;1254;71711;-65
2023/01/31 07:36:30;;;;;;;71.30;35.90;;;;;;;7.98;67.39;99054.52;108062;1254;61790;-66
2023/01/31 07:39:00;;;;;;;90.90;41.40;;;;;;;8.32;66.83;99057.94;108100;1254;61391;-66
2023/01/31 07:41:29;;;;;;;79.70;38.50;;;;;;;8.60;65.78;99057.56;108121;1259;75075;-66
2023/01/31 07:43:58;;;;;;;87.20;39.90;;;;;;;8.62;65.48;99061.29;108154;1254;71228;-65
2023/01/31 07:46:26;;;;;;;83.40;39.10;;;;;;;8.36;66.04;99065.80;108133;1254;73672;-63
2023/01/31 07:48:54;;;;;;;73.10;33.40;;;;;;;8.56;65.71;99065.61;108134;1254;62442;-65
2023/01/31 07:51:23;;;;;;;87.40;40.70;;;;;;;8.86;64.80;99068.95;108115;1254;60262;-64
2023/01/31 07:53:51;;;;;;;71.40;35.20;;;;;;;8.72;64.73;99066.77;108029;1254;72818;-65
2023/01/31 07:56:20;;;;;;;59.80;30.90;;;;;;;8.89;64.61;99068.30;108110;1254;69907;-65
2023/01/31 07:58:48;;;;;;;64.90;32.90;;;;;;;9.12;63.88;99068.09;108052;1254;73384;-66
2023/01/31 08:04:06;;;;;;;71.20;33.30;;;;;;;9.36;63.11;99068.64;108077;1254;59159;-64
2023/01/31 08:06:49;;;;;;;58.00;31.10;;;;;;;9.32;62.75;99067.77;108096;1254;73868;-64
2023/01/31 08:09:17;;;;;;;61.70;30.10;;;;;;;9.39;62.61;99073.61;108023;1254;70549;-65
2023/01/31 11:51:39;;;;;;;66.20;36.70;;;;;;;5.84;100.00;99102.18;105743;1283;612899;-64
2023/01/31 11:54:12;;;;;;;66.50;36.00;;;;;;;6.96;100.00;99111.08;107235;1269;115192;-64
2023/01/31 11:56:39;;;;;;;64.70;35.00;;;;;;;7.09;100.00;99106.73;107383;1263;60647;-64
2023/01/31 11:59:09;;;;;;;68.00;35.60;;;;;;;7.59;99.10;99105.60;107454;1263;73801;-65
2023/01/31 12:01:50;;;;;;;71.30;36.50;;;;;;;7.62;97.98;99104.61;107783;1257;71421;-64
2023/01/31 12:04:24;;;;;;;63.90;34.20;;;;;;;7.71;96.65;99101.08;107908;1257;73014;-64
2023/01/31 12:06:56;;;;;;;64.90;33.70;;;;;;;7.82;94.84;99099.24;107957;1257;61117;-64
2023/01/31 12:09:25;;;;;;;62.00;31.60;;;;;;;7.90;93.93;99103.61;108002;1257;61383;-65
2023/01/31 12:11:56;;;;;;;60.60;31.90;;;;;;;7.97;81.74;99104.38;107941;1257;72335;-65
2023/01/31 12:14:24;;;;;;;64.90;32.80;;;;;;;7.94;80.26;99104.31;107894;1261;71577;-66
2023/01/31 12:16:54;;;;;;;69.60;34.80;;;;;;;7.87;79.74;99108.80;107921;1257;73300;-65
2023/01/31 12:20:02;;;;;;;69.00;35.80;;;;;;;8.21;78.55;99116.27;107656;1259;61960;-65
2023/01/31 12:22:51;;;;;;;71.00;37.10;;;;;;;8.15;77.96;99120.01;107693;1260;60905;-64
2023/01/31 12:25:42;;;;;;;69.60;34.20;;;;;;;8.09;78.07;99113.64;107678;1260;71903;-66
2023/01/31 12:28:41;;;;;;;58.90;30.60;;;;;;;8.21;77.30;99114.88;107693;1260;70561;-65
2023/01/31 12:31:26;;;;;;;64.60;33.30;;;;;;;8.09;77.37;99118.19;107683;1260;72311;-66
2023/01/31 12:34:03;;;;;;;66.70;33.40;;;;;;;7.89;78.13;99118.19;107630;1259;61207;-65
2023/01/31 12:36:48;;;;;;;63.20;33.20;;;;;;;7.99;77.80;99121.95;107683;1260;61444;-66
2023/01/31 12:40:02;;;;;;;57.40;30.30;;;;;;;8.13;77.06;99120.11;107690;1257;74068;-65
2023/01/31 12:42:53;;;;;;;52.60;27.30;;;;;;;8.17;76.54;99122.92;107804;1260;71261;-65
2023/01/31 12:45:46;;;;;;;61.40;31.20;;;;;;;8.07;76.18;99122.30;107672;1260;71141;-65
2023/01/31 12:48:35;;;;;;;62.00;33.60;;;;;;;7.92;76.71;99123.29;107656;1260;62004;-65
2023/01/31 12:51:42;;;;;;;62.20;32.60;;;;;;;7.96;76.61;99126.41;107705;1260;61543;-66
2023/01/31 12:54:33;;;;;;;55.60;31.30;;;;;;;8.06;76.02;99126.70;107500;1263;73883;-65
2023/01/31 12:57:06;;;;;;;55.00;31.50;;;;;;;7.94;76.43;99123.02;107757;1257;71431;-66
2023/01/31 12:59:36;;;;;;;65.80;33.80;;;;;;;8.01;76.12;99126.73;107692;1257;72522;-66
2023/01/31 13:02:51;;;;;;;60.30;32.50;;;;;;;8.07;74.84;99128.08;107726;1257;62088;-65
2023/01/31 13:05:46;;;;;;;63.90;32.60;;;;;;;8.17;74.25;99125.52;107405;1263;60389;-65
2023/01/31 13:08:20;;;;;;;72.00;37.70;;;;;;;8.01;74.51;99122.39;107425;1267;74051;-65
2023/01/31 13:10:59;;;;;;;65.20;34.30;;;;;;;8.00;74.40;99125.24;107736;1257;69441;-65
2023/01/31 13:13:35;;;;;;;68.80;36.40;;;;;;;8.01;74.55;99124.83;107811;1257;72779;-65
2023/01/31 13:16:24;;;;;;;62.40;34.30;;;;;;;7.99;74.76;99128.39;107787;1257;62422;-65
2023/01/31 13:18:53;;;;;;;60.60;30.60;;;;;;;8.15;74.15;99132.98;107773;1257;61410;-65
2023/01/31 13:21:22;;;;;;;59.80;31.30;;;;;;;8.09;74.19;99134.80;107727;1257;74682;-65
2023/01/31 13:23:53;;;;;;;55.70;30.60;;;;;;;8.17;74.05;99141.80;107620;1263;71349;-66
2023/01/31 13:26:21;;;;;;;;;;;;;;;8.11;74.11;99138.21;107704;1257;71379;-64
2023/01/31 13:29:23;;;;;;;51.30;28.30;;;;;;;8.23;74.03;99141.90;107691;1257;62236;-65
2023/01/31 13:31:53;;;;;;;58.50;28.80;;;;;;;8.37;73.41;99138.84;107675;1257;59969;-65
2023/01/31 13:34:30;;;;;;;53.00;27.10;;;;;;;8.46;72.81;99141.59;107738;1257;72803;-66
2023/01/31 13:37:00;;;;;;;55.90;30.30;;;;;;;8.42;72.91;99142.67;107728;1261;71166;-66
2023/01/31 13:39:34;;;;;;;61.20;30.40;;;;;;;8.42;72.58;99145.63;107712;1257;73633;-66
2023/01/31 13:42:01;;;;;;;52.10;28.00;;;;;;;8.21;73.16;99144.95;107692;1261;60735;-66
2023/01/31 13:44:28;;;;;;;59.10;31.70;;;;;;;8.11;73.57;99146.40;107803;1257;60246;-66
2023/01/31 13:46:57;;;;;;;56.50;30.40;;;;;;;8.06;73.81;99144.36;107806;1257;74255;-66
2023/01/31 13:49:28;;;;;;;56.90;30.00;;;;;;;8.04;73.62;99143.41;107779;1260;70437;-65
2023/01/31 13:51:55;;;;;;;;;;;;;;;8.12;73.59;99148.29;107820;1257;74280;-65
2023/01/31 13:54:33;;;;;;;49.50;25.60;;;;;;;8.14;72.99;99147.86;107827;1257;60177;-65
2023/01/31 13:56:59;;;;;;;52.60;28.40;;;;;;;7.95;73.72;99147.10;107805;1257;61353;-66
2023/01/31 13:59:27;;;;;;;58.40;30.20;;;;;;;8.26;72.65;99147.17;107755;1257;59489;-65
2023/01/31 14:02:01;;;;;;;56.80;29.40;;;;;;;8.24;72.58;99150.24;107764;1257;71572;-65
2023/01/31 14:04:33;;;;;;;61.00;32.70;;;;;;;8.36;72.20;99150.27;107665;1263;73717;-65
2023/01/31 14:07:04;;;;;;;56.60;30.80;;;;;;;8.35;72.10;99146.98;107630;1257;61401;-66
2023/01/31 14:09:55;;;;;;;55.60;27.40;;;;;;;8.46;71.87;99149.51;107770;1257;61591;-65
2023/01/31 14:12:22;;;;;;;58.60;30.80;;;;;;;8.48;71.42;99154.83;107562;1257;72737;-65
2023/01/31 14:14:50;;;;;;;51.40;27.30;;;;;;;8.55;71.01;99149.80;107753;1261;71517;-64
2023/01/31 14:17:19;;;;;;;53.50;28.30;;;;;;;8.72;70.34;99152.91;107750;1257;73489;-66
2023/01/31 14:19:46;;;;;;;69.50;34.60;;;;;;;8.62;70.53;99147.58;107715;1258;61188;-65
2023/01/31 14:22:26;;;;;;;76.20;35.70;;;;;;;8.53;70.52;99151.66;107743;1257;61265;-65
2023/01/31 14:24:55;;;;;;;80.70;36.60;;;;;;;8.45;70.93;99153.39;107804;1257;74255;-65
2023/01/31 14:27:36;;;;;;;85.90;38.40;;;;;;;8.51;70.75;99154.36;107789;1257;68560;-66
2023/01/31 14:30:06;;;;;;;62.70;30.50;;;;;;;8.36;71.02;99159.18;107742;1259;73798;-65
2023/01/31 14:33:05;;;;;;;69.70;35.50;;;;;;;8.36;71.48;99163.20;107703;1260;62263;-66
2023/01/31 14:36:06;;;;;;;78.80;35.30;;;;;;;8.50;70.89;99159.80;107670;1261;61394;-66
2023/01/31 14:38:43;;;;;;;;;;;;;;;8.62;70.17;99161.73;107737;1258;73893;-65
2023/01/31 14:41:39;;;;;;;59.20;30.20;;;;;;;8.55;70.45;99161.32;107741;1262;70692;-66
2023/01/31 14:44:12;;;;;;;61.40;33.10;;;;;;;8.55;70.60;99165.35;107681;1259;70521;-66
2023/01/31 14:47:00;;;;;;;56.70;29.50;;;;;;;8.51;70.38;99163.26;107718;1260;61012;-65
2023/01/31 14:49:52;;;;;;;58.70;27.70;;;;;;;8.61;70.13;99161.41;107755;1260;60737;-63
2023/01/31 14:52:23;;;;;;;60.30;33.60;;;;;;;8.64;69.96;99159.19;107672;1260;74330;-65
2023/01/31 14:55:26;;;;;;;52.20;29.80;;;;;;;8.62;69.64;99162.26;107808;1259;70424;-65
2023/01/31 14:57:57;;;;;;;58.50;29.80;;;;;;;8.83;68.73;99165.02;107681;1260;73599;-66
2023/01/31 15:00:31;;;;;;;72.30;37.50;;;;;;;8.36;70.09;99170.89;107668;1261;61214;-66
2023/01/31 15:03:11;;;;;;;70.70;36.00;;;;;;;8.59;69.55;99168.53;107723;1260;61160;-65
2023/01/31 15:05:41;;;;;;;76.80;38.10;;;;;;;8.69;69.21;99167.72;107690;1259;72797;-65
2023/01/31 15:08:07;;;;;;;91.90;43.90;;;;;;;8.69;69.11;99167.05;107678;1262;71497;-65
2023/01/31 15:10:56;;;;;;;98.80;46.50;;;;;;;8.53;69.29;99174.37;107672;1260;73548;-65
2023/01/31 15:13:38;;;;;;;91.40;42.10;;;;;;;8.45;69.75;99178.94;107717;1260;59898;-65
2023/01/31 15:16:32;;;;;;;103.00;47.10;;;;;;;8.31;70.38;99182.33;107743;1260;60553;-65
2023/01/31 15:19:16;;;;;;;101.20;45.20;;;;;;;8.61;69.57;99183.65;107735;1262;74141;-65
2023/01/31 15:21:47;;;;;;;90.00;41.70;;;;;;;8.90;68.82;99181.67;107712;1259;71329;-66
2023/01/31 15:24:19;;;;;;;109.50;48.30;;;;;;;8.68;69.25;99184.20;107671;1260;72557;-66
2023/01/31 15:26:47;;;;;;;103.70;46.50;;;;;;;8.56;69.51;99189.81;107691;1261;61972;-65
2023/01/31 15:29:43;;;;;;;91.40;40.60;;;;;;;8.54;69.57;99196.88;107763;1257;61183;-65
2023/01/31 15:32:21;;;;;;;118.70;52.50;;;;;;;8.43;69.91;99196.14;107687;1257;73085;-65
2023/01/31 15:35:00;;;;;;;114.60;51.50;;;;;;;8.38;70.11;99198.46;107752;1257;69628;-65
2023/01/31 15:37:31;;;;;;;96.90;43.60;;;;;;;8.29;70.39;99197.27;107769;1257;72859;-65
2023/01/31 15:40:02;;;;;;;113.00;50.00;;;;;;;8.44;70.03;99198.55;107811;1257;61945;-65
2023/01/31 15:42:31;;;;;;;111.00;46.60;;;;;;;8.43;69.87;99199.12;107780;1260;59612;-65
2023/01/31 15:45:16;;;;;;;91.60;40.30;;;;;;;8.61;69.61;99199.92;107748;1260;73075;-66
2023/01/31 15:47:43;;;;;;;122.60;55.50;;;;;;;8.46;70.06;99198.12;107752;1260;70940;-65
2023/01/31 15:50:17;;;;;;;103.60;46.10;;;;;;;8.41;70.35;99200.77;107720;1260;73892;-65
2023/01/31 19:44:45;;;;;;;37.50;20.30;;;;;;;4.92;100.00;99267.48;105477;1286;613803;-65
2023/01/31 19:47:13;;;;;;;38.10;20.90;;;;;;;6.35;100.00;99268.51;107057;1272;129367;-65
2023/01/31 19:49:42;;;;;;;37.90;20.30;;;;;;;6.49;100.00;99266.80;107216;1270;61160;-65
2023/01/31 19:52:10;;;;;;;35.60;20.70;;;;;;;6.48;100.00;99267.36;107244;1266;73140;-66
2023/01/31 19:54:40;;;;;;;35.60;20.60;;;;;;;6.41;100.00;99267.60;107232;1266;70394;-66
2023/01/31 19:57:09;;;;;;;;;;;;;;;6.44;100.00;99274.13;107264;1266;73656;-65
2023/01/31 19:59:37;;;;;;;36.50;20.00;;;;;;;6.57;100.00;99271.42;107269;1266;60921;-66
2023/01/31 20:02:05;;;;;;;37.50;19.30;;;;;;;6.66;100.00;99268.50;107267;1266;60135;-65
2023/01/31 20:04:34;;;;;;;42.70;21.10;;;;;;;6.88;100.00;99269.13;107245;1266;73241;-65
2023/01/31 20:07:02;;;;;;;39.50;20.20;;;;;;;6.99;100.00;99269.96;107304;1266;70009;-66
2023/01/31 20:09:32;;;;;;;37.90;21.10;;;;;;;6.90;100.00;99271.84;107219;1266;73793;-66
2023/01/31 20:12:00;;;;;;;41.00;20.80;;;;;;;7.06;100.00;99274.92;107248;1266;61095;-66
2023/01/31 20:14:28;;;;;;;38.80;20.70;;;;;;;7.06;100.00;99276.86;107254;1266;61534;-65
2023/01/31 20:16:57;;;;;;;41.30;19.90;;;;;;;7.12;100.00;99276.45;107250;1266;73719;-65
2023/01/31 20:19:25;;;;;;;41.50;19.20;;;;;;;7.25;100.00;99271.44;107251;1266;70609;-66
2023/01/31 20:21:54;;;;;;;35.20;18.40;;;;;;;7.44;100.00;99273.20;107227;1266;72179;-65
2023/01/31 20:24:22;;;;;;;33.60;18.20;;;;;;;7.42;100.00;99267.48;107269;1266;62094;-65
2023/01/31 20:26:50;;;;;;;34.10;17.50;;;;;;;7.35;100.00;99267.56;107272;1266;61402;-66
2023/01/31 20:29:18;;;;;;;36.60;19.20;;;;;;;7.36;100.00;99266.67;107279;1266;73358;-66
2023/01/31 20:31:47;;;;;;;33.40;18.70;;;;;;;6.95;100.00;99268.69;107225;1266;70578;-65
2023/01/31 20:34:15;;;;;;;37.70;18.80;;;;;;;6.75;100.00;99268.88;107182;1267;72346;-66
2023/01/31 20:36:43;;;;;;;34.30;19.10;;;;;;;6.97;100.00;99270.91;107217;1265;62096;-65
2023/01/31 20:39:11;;;;;;;31.60;16.90;;;;;;;6.77;100.00;99269.66;107208;1266;60014;-64
2023/01/31 20:41:40;;;;;;;33.30;18.50;;;;;;;6.86;100.00;99266.39;107228;1266;74145;-64
2023/01/31 20:44:08;;;;;;;35.90;18.20;;;;;;;6.82;100.00;99269.33;107270;1266;71272;-65
2023/01/31 20:46:36;;;;;;;33.60;18.20;;;;;;;7.08;100.00;99272.60;107386;1266;73902;-65
2023/01/31 20:49:04;;;;;;;33.40;17.60;;;;;;;7.04;100.00;99277.27;107249;1266;62232;-64
2023/01/31 20:51:33;;;;;;;33.10;16.40;;;;;;;7.29;100.00;99271.32;107248;1267;60500;-64
2023/01/31 20:54:02;;;;;;;31.50;17.30;;;;;;;7.32;100.00;99274.49;107290;1267;74259;-64
2023/01/31 20:56:31;;;;;;;31.20;16.60;;;;;;;7.38;100.00;99273.92;107254;1266;71463;-64
2023/01/31 20:59:03;;;;;;;35.20;16.60;;;;;;;7.67;100.00;99270.02;107241;1266;73707;-64
2023/01/31 21:01:31;;;;;;;34.80;17.10;;;;;;;7.30;100.00;99275.78;107257;1267;61743;-64
2023/01/31 21:04:00;;;;;;;32.70;16.40;;;;;;;7.10;100.00;99278.12;107268;1266;61287;-64
2023/01/31 21:06:28;;;;;;;28.10;15.60;;;;;;;6.95;100.00;99279.86;107250;1266;73364;-64
2023/01/31 21:08:56;;;;;;;26.50;15.20;;;;;;;6.88;100.00;99281.34;107303;1266;69504;-64
2023/01/31 21:11:24;;;;;;;28.00;15.70;;;;;;;6.95;100.00;99278.12;107275;1266;72706;-64
2023/01/31 21:13:52;;;;;;;31.80;15.20;;;;;;;6.97;100.00;99278.59;107277;1266;62512;-64
2023/01/31 21:16:21;;;;;;;31.50;15.70;;;;;;;6.81;100.00;99272.16;107303;1266;61474;-64
2023/01/31 21:18:49;;;;;;;24.90;13.60;;;;;;;6.79;100.00;99273.27;107296;1267;73976;-64
2023/01/31 21:21:24;;;;;;;26.70;13.70;;;;;;;6.91;100.00;99277.59;107242;1269;71391;-64
2023/01/31 21:23:53;;;;;;;23.70;13.80;;;;;;;7.14;100.00;99276.59;107320;1266;73535;-64
2023/01/31 21:26:22;;;;;;;26.30;13.40;;;;;;;7.38;100.00;99273.58;107307;1266;61018;-65
2023/01/31 21:28:53;;;;;;;28.80;14.60;;;;;;;7.43;100.00;99274.63;107259;1266;60554;-64